sensor_id;sensor_type;location;lat;lon;timestamp;P1;durP1;ratioP1;P2;durP2;ratioP2
62933;SDS011;49038;47.600;19.242;2022-11-20T00:02:02;7.07;;;4.55;;
62933;SDS011;49038;47.600;19.242;2022-11-20T00:05:04;4.10;;;3.62;;
62933;SDS011;49038;47.600;19.242;2022-11-20T00:08:07;3.10;;;2.80;;
62933;SDS011;49038;47.600;19.242;2022-11-20T00:11:10;6.70;;;4.45;;
62933;SDS011;49038;47.600;19.242;2022-11-20T00:14:17;7.07;;;3.72;;
62933;SDS011;49038;47.600;19.242;2022-11-20T00:17:19;3.78;;;2.95;;
62933;SDS011;49038;47.600;19.242;2022-11-20T00:20:21;6.93;;;5.20;;
62933;SDS011;49038;47.600;19.242;2022-11-20T00:23:24;8.30;;;3.92;;
62933;SDS011;49038;47.600;19.242;2022-11-20T00:26:26;6.00;;;4.87;;
62933;SDS011;49038;47.600;19.242;2022-11-20T00:29:29;2.00;;;1.83;;
62933;SDS011;49038;47.600;19.242;2022-11-20T00:32:32;4.47;;;4.07;;
62933;SDS011;49038;47.600;19.242;2022-11-20T00:35:34;4.50;;;4.12;;
62933;SDS011;49038;47.600;19.242;2022-11-20T00:38:36;6.45;;;4.47;;
62933;SDS011;49038;47.600;19.242;2022-11-20T00:41:38;4.30;;;3.65;;
62933;SDS011;49038;47.600;19.242;2022-11-20T00:44:41;4.97;;;3.28;;
62933;SDS011;49038;47.600;19.242;2022-11-20T00:47:43;4.57;;;3.03;;
62933;SDS011;49038;47.600;19.242;2022-11-20T00:50:45;4.75;;;4.07;;
62933;SDS011;49038;47.600;19.242;2022-11-20T00:53:47;6.62;;;4.70;;
62933;SDS011;49038;47.600;19.242;2022-11-20T00:56:52;3.17;;;2.87;;
62933;SDS011;49038;47.600;19.242;2022-11-20T00:59:55;10.02;;;5.80;;
62933;SDS011;49038;47.600;19.242;2022-11-20T01:02:57;5.47;;;4.35;;
62933;SDS011;49038;47.600;19.242;2022-11-20T01:06:00;8.73;;;4.93;;
62933;SDS011;49038;47.600;19.242;2022-11-20T01:09:10;6.82;;;5.30;;
62933;SDS011;49038;47.600;19.242;2022-11-20T01:12:13;5.18;;;3.70;;
62933;SDS011;49038;47.600;19.242;2022-11-20T01:15:16;8.50;;;3.90;;
62933;SDS011;49038;47.600;19.242;2022-11-20T01:18:18;5.78;;;4.18;;
62933;SDS011;49038;47.600;19.242;2022-11-20T01:21:22;4.65;;;4.25;;
62933;SDS011;49038;47.600;19.242;2022-11-20T01:24:27;7.15;;;5.00;;
62933;SDS011;49038;47.600;19.242;2022-11-20T01:27:29;7.22;;;4.35;;
62933;SDS011;49038;47.600;19.242;2022-11-20T01:30:31;6.53;;;5.72;;
62933;SDS011;49038;47.600;19.242;2022-11-20T01:33:34;4.60;;;3.97;;
62933;SDS011;49038;47.600;19.242;2022-11-20T01:36:36;4.87;;;4.45;;
62933;SDS011;49038;47.600;19.242;2022-11-20T01:39:39;15.93;;;6.45;;
62933;SDS011;49038;47.600;19.242;2022-11-20T01:42:44;7.45;;;4.95;;
62933;SDS011;49038;47.600;19.242;2022-11-20T01:46:15;6.50;;;4.22;;
62933;SDS011;49038;47.600;19.242;2022-11-20T01:49:24;7.00;;;4.97;;
62933;SDS011;49038;47.600;19.242;2022-11-20T01:52:42;15.25;;;4.47;;
62933;SDS011;49038;47.600;19.242;2022-11-20T01:56:06;6.28;;;3.45;;
62933;SDS011;49038;47.600;19.242;2022-11-20T01:59:11;4.43;;;3.90;;
62933;SDS011;49038;47.600;19.242;2022-11-20T02:02:15;6.25;;;4.18;;
62933;SDS011;49038;47.600;19.242;2022-11-20T02:05:19;9.48;;;4.55;;
62933;SDS011;49038;47.600;19.242;2022-11-20T02:08:40;6.10;;;3.75;;
62933;SDS011;49038;47.600;19.242;2022-11-20T02:11:42;3.92;;;3.58;;
62933;SDS011;49038;47.600;19.242;2022-11-20T02:14:45;11.38;;;4.72;;
62933;SDS011;49038;47.600;19.242;2022-11-20T02:17:47;6.10;;;5.32;;
62933;SDS011;49038;47.600;19.242;2022-11-20T02:20:51;5.05;;;4.60;;
62933;SDS011;49038;47.600;19.242;2022-11-20T02:24:06;8.48;;;6.03;;
62933;SDS011;49038;47.600;19.242;2022-11-20T02:27:15;17.77;;;4.30;;
62933;SDS011;49038;47.600;19.242;2022-11-20T02:30:17;7.32;;;6.07;;
62933;SDS011;49038;47.600;19.242;2022-11-20T02:33:20;4.30;;;3.95;;
62933;SDS011;49038;47.600;19.242;2022-11-20T02:36:22;11.52;;;5.53;;
62933;SDS011;49038;47.600;19.242;2022-11-20T02:39:26;8.55;;;4.28;;
62933;SDS011;49038;47.600;19.242;2022-11-20T02:42:29;5.15;;;4.10;;
62933;SDS011;49038;47.600;19.242;2022-11-20T02:45:32;4.62;;;4.00;;
62933;SDS011;49038;47.600;19.242;2022-11-20T02:48:34;9.70;;;3.97;;
62933;SDS011;49038;47.600;19.242;2022-11-20T02:51:36;11.50;;;5.70;;
62933;SDS011;49038;47.600;19.242;2022-11-20T02:54:38;11.65;;;6.00;;
62933;SDS011;49038;47.600;19.242;2022-11-20T02:57:41;6.78;;;5.40;;
62933;SDS011;49038;47.600;19.242;2022-11-20T03:00:43;5.93;;;5.35;;
62933;SDS011;49038;47.600;19.242;2022-11-20T03:03:45;4.40;;;3.42;;
62933;SDS011;49038;47.600;19.242;2022-11-20T03:06:47;7.93;;;3.95;;
62933;SDS011;49038;47.600;19.242;2022-11-20T03:09:49;10.15;;;4.53;;
62933;SDS011;49038;47.600;19.242;2022-11-20T03:12:53;6.57;;;4.07;;
62933;SDS011;49038;47.600;19.242;2022-11-20T03:15:58;8.38;;;4.85;;
62933;SDS011;49038;47.600;19.242;2022-11-20T03:19:00;6.32;;;3.53;;
62933;SDS011;49038;47.600;19.242;2022-11-20T03:22:02;5.78;;;5.18;;
62933;SDS011;49038;47.600;19.242;2022-11-20T03:25:04;9.70;;;6.50;;
62933;SDS011;49038;47.600;19.242;2022-11-20T03:28:07;7.72;;;4.82;;
62933;SDS011;49038;47.600;19.242;2022-11-20T03:31:10;14.48;;;4.95;;
62933;SDS011;49038;47.600;19.242;2022-11-20T03:34:13;5.37;;;4.50;;
62933;SDS011;49038;47.600;19.242;2022-11-20T03:37:15;7.95;;;5.03;;
62933;SDS011;49038;47.600;19.242;2022-11-20T03:40:18;5.95;;;4.12;;
62933;SDS011;49038;47.600;19.242;2022-11-20T03:43:20;10.13;;;4.95;;
62933;SDS011;49038;47.600;19.242;2022-11-20T03:46:22;6.80;;;5.07;;
62933;SDS011;49038;47.600;19.242;2022-11-20T03:49:25;6.93;;;5.10;;
62933;SDS011;49038;47.600;19.242;2022-11-20T03:52:27;9.82;;;4.87;;
62933;SDS011;49038;47.600;19.242;2022-11-20T03:55:29;5.35;;;4.53;;
62933;SDS011;49038;47.600;19.242;2022-11-20T03:58:32;4.85;;;3.92;;
62933;SDS011;49038;47.600;19.242;2022-11-20T04:01:35;7.97;;;5.85;;
62933;SDS011;49038;47.600;19.242;2022-11-20T04:04:39;13.70;;;6.20;;
62933;SDS011;49038;47.600;19.242;2022-11-20T04:07:41;8.00;;;5.90;;
62933;SDS011;49038;47.600;19.242;2022-11-20T04:10:43;6.90;;;5.87;;
62933;SDS011;49038;47.600;19.242;2022-11-20T04:13:46;6.53;;;5.87;;
62933;SDS011;49038;47.600;19.242;2022-11-20T04:16:50;6.62;;;4.60;;
62933;SDS011;49038;47.600;19.242;2022-11-20T04:19:52;7.95;;;4.87;;
62933;SDS011;49038;47.600;19.242;2022-11-20T04:22:54;6.30;;;5.20;;
62933;SDS011;49038;47.600;19.242;2022-11-20T04:26:03;8.68;;;5.32;;
62933;SDS011;49038;47.600;19.242;2022-11-20T04:29:13;10.18;;;4.45;;
62933;SDS011;49038;47.600;19.242;2022-11-20T04:32:15;5.95;;;5.12;;
62933;SDS011;49038;47.600;19.242;2022-11-20T04:35:17;4.57;;;4.18;;
62933;SDS011;49038;47.600;19.242;2022-11-20T04:38:19;7.68;;;4.87;;
62933;SDS011;49038;47.600;19.242;2022-11-20T04:41:23;6.30;;;4.43;;
62933;SDS011;49038;47.600;19.242;2022-11-20T04:44:27;9.00;;;5.00;;
62933;SDS011;49038;47.600;19.242;2022-11-20T04:47:30;4.75;;;3.95;;
62933;SDS011;49038;47.600;19.242;2022-11-20T04:50:32;6.35;;;5.10;;
62933;SDS011;49038;47.600;19.242;2022-11-20T04:53:34;9.63;;;5.75;;
62933;SDS011;49038;47.600;19.242;2022-11-20T04:56:36;12.23;;;4.32;;
62933;SDS011;49038;47.600;19.242;2022-11-20T04:59:39;10.35;;;6.12;;
62933;SDS011;49038;47.600;19.242;2022-11-20T05:02:41;9.27;;;5.18;;
62933;SDS011;49038;47.600;19.242;2022-11-20T05:05:43;4.75;;;3.97;;
62933;SDS011;49038;47.600;19.242;2022-11-20T05:08:46;6.60;;;3.95;;
62933;SDS011;49038;47.600;19.242;2022-11-20T05:11:48;9.25;;;5.87;;
62933;SDS011;49038;47.600;19.242;2022-11-20T05:14:52;6.15;;;3.78;;
62933;SDS011;49038;47.600;19.242;2022-11-20T05:17:54;8.25;;;5.55;;
62933;SDS011;49038;47.600;19.242;2022-11-20T05:20:57;4.35;;;3.95;;
62933;SDS011;49038;47.600;19.242;2022-11-20T05:23:59;6.30;;;5.28;;
62933;SDS011;49038;47.600;19.242;2022-11-20T05:27:02;3.60;;;2.85;;
62933;SDS011;49038;47.600;19.242;2022-11-20T05:30:04;11.68;;;5.57;;
62933;SDS011;49038;47.600;19.242;2022-11-20T05:33:07;12.18;;;5.12;;
62933;SDS011;49038;47.600;19.242;2022-11-20T05:36:10;5.90;;;3.90;;
62933;SDS011;49038;47.600;19.242;2022-11-20T05:39:13;9.75;;;5.90;;
62933;SDS011;49038;47.600;19.242;2022-11-20T05:42:15;11.02;;;5.93;;
62933;SDS011;49038;47.600;19.242;2022-11-20T05:45:32;6.70;;;5.20;;
62933;SDS011;49038;47.600;19.242;2022-11-20T05:48:35;11.50;;;6.28;;
62933;SDS011;49038;47.600;19.242;2022-11-20T05:51:37;6.32;;;5.72;;
62933;SDS011;49038;47.600;19.242;2022-11-20T05:54:40;7.68;;;5.60;;
62933;SDS011;49038;47.600;19.242;2022-11-20T05:57:42;8.15;;;4.50;;
62933;SDS011;49038;47.600;19.242;2022-11-20T06:00:44;5.78;;;4.62;;
62933;SDS011;49038;47.600;19.242;2022-11-20T06:03:47;9.43;;;4.45;;
62933;SDS011;49038;47.600;19.242;2022-11-20T06:06:49;7.65;;;4.57;;
62933;SDS011;49038;47.600;19.242;2022-11-20T06:09:51;11.85;;;5.50;;
62933;SDS011;49038;47.600;19.242;2022-11-20T06:12:56;10.82;;;6.47;;
62933;SDS011;49038;47.600;19.242;2022-11-20T06:15:59;7.70;;;3.97;;
62933;SDS011;49038;47.600;19.242;2022-11-20T06:19:02;7.80;;;4.97;;
62933;SDS011;49038;47.600;19.242;2022-11-20T06:22:04;20.30;;;6.78;;
62933;SDS011;49038;47.600;19.242;2022-11-20T06:25:06;7.15;;;5.30;;
62933;SDS011;49038;47.600;19.242;2022-11-20T06:28:09;10.68;;;6.20;;
62933;SDS011;49038;47.600;19.242;2022-11-20T06:31:12;26.50;;;14.50;;
62933;SDS011;49038;47.600;19.242;2022-11-20T06:34:16;19.02;;;11.40;;
62933;SDS011;49038;47.600;19.242;2022-11-20T06:37:18;7.28;;;6.05;;
62933;SDS011;49038;47.600;19.242;2022-11-20T06:40:20;15.50;;;6.65;;
62933;SDS011;49038;47.600;19.242;2022-11-20T06:43:22;7.87;;;6.95;;
62933;SDS011;49038;47.600;19.242;2022-11-20T06:46:25;10.07;;;6.35;;
62933;SDS011;49038;47.600;19.242;2022-11-20T06:49:28;12.57;;;5.85;;
62933;SDS011;49038;47.600;19.242;2022-11-20T06:52:30;10.73;;;6.37;;
62933;SDS011;49038;47.600;19.242;2022-11-20T06:55:32;11.20;;;7.03;;
62933;SDS011;49038;47.600;19.242;2022-11-20T06:58:35;10.77;;;5.93;;
62933;SDS011;49038;47.600;19.242;2022-11-20T07:01:37;8.88;;;5.45;;
62933;SDS011;49038;47.600;19.242;2022-11-20T07:04:40;9.05;;;6.75;;
62933;SDS011;49038;47.600;19.242;2022-11-20T07:07:42;9.23;;;5.62;;
62933;SDS011;49038;47.600;19.242;2022-11-20T07:10:44;7.57;;;4.97;;
62933;SDS011;49038;47.600;19.242;2022-11-20T07:13:46;13.73;;;7.40;;
62933;SDS011;49038;47.600;19.242;2022-11-20T07:16:48;11.82;;;5.90;;
62933;SDS011;49038;47.600;19.242;2022-11-20T07:19:51;13.60;;;7.62;;
62933;SDS011;49038;47.600;19.242;2022-11-20T07:22:54;9.00;;;5.95;;
62933;SDS011;49038;47.600;19.242;2022-11-20T07:25:57;9.13;;;6.70;;
62933;SDS011;49038;47.600;19.242;2022-11-20T07:28:59;9.63;;;5.72;;
62933;SDS011;49038;47.600;19.242;2022-11-20T07:32:01;9.52;;;4.50;;
62933;SDS011;49038;47.600;19.242;2022-11-20T07:35:03;7.18;;;5.72;;
62933;SDS011;49038;47.600;19.242;2022-11-20T07:38:06;10.48;;;7.57;;
62933;SDS011;49038;47.600;19.242;2022-11-20T07:41:08;13.52;;;5.68;;
62933;SDS011;49038;47.600;19.242;2022-11-20T07:44:10;6.62;;;4.72;;
62933;SDS011;49038;47.600;19.242;2022-11-20T07:47:13;9.10;;;5.82;;
62933;SDS011;49038;47.600;19.242;2022-11-20T07:50:15;8.23;;;5.68;;
62933;SDS011;49038;47.600;19.242;2022-11-20T07:53:18;9.55;;;5.05;;
62933;SDS011;49038;47.600;19.242;2022-11-20T07:56:22;11.38;;;6.45;;
62933;SDS011;49038;47.600;19.242;2022-11-20T07:59:24;13.07;;;6.00;;
62933;SDS011;49038;47.600;19.242;2022-11-20T08:02:26;8.55;;;5.65;;
62933;SDS011;49038;47.600;19.242;2022-11-20T08:05:29;10.48;;;6.03;;
62933;SDS011;49038;47.600;19.242;2022-11-20T08:08:31;15.30;;;8.18;;
62933;SDS011;49038;47.600;19.242;2022-11-20T08:11:35;12.93;;;7.10;;
62933;SDS011;49038;47.600;19.242;2022-11-20T08:14:56;11.02;;;7.22;;
62933;SDS011;49038;47.600;19.242;2022-11-20T08:18:04;10.65;;;5.50;;
62933;SDS011;49038;47.600;19.242;2022-11-20T08:21:31;9.82;;;6.53;;
62933;SDS011;49038;47.600;19.242;2022-11-20T08:24:39;8.60;;;4.45;;
62933;SDS011;49038;47.600;19.242;2022-11-20T08:27:41;10.20;;;6.37;;
62933;SDS011;49038;47.600;19.242;2022-11-20T08:30:43;7.53;;;5.32;;
62933;SDS011;49038;47.600;19.242;2022-11-20T08:33:45;5.60;;;4.35;;
62933;SDS011;49038;47.600;19.242;2022-11-20T08:36:48;8.02;;;5.43;;
62933;SDS011;49038;47.600;19.242;2022-11-20T08:39:50;8.50;;;4.80;;
62933;SDS011;49038;47.600;19.242;2022-11-20T08:42:52;5.97;;;3.70;;
62933;SDS011;49038;47.600;19.242;2022-11-20T08:45:56;9.25;;;5.97;;
62933;SDS011;49038;47.600;19.242;2022-11-20T08:48:58;18.83;;;9.27;;
62933;SDS011;49038;47.600;19.242;2022-11-20T08:52:01;7.15;;;5.40;;
62933;SDS011;49038;47.600;19.242;2022-11-20T08:55:03;9.25;;;4.72;;
62933;SDS011;49038;47.600;19.242;2022-11-20T08:58:06;10.25;;;5.28;;
62933;SDS011;49038;47.600;19.242;2022-11-20T09:01:09;9.25;;;5.40;;
62933;SDS011;49038;47.600;19.242;2022-11-20T09:04:12;7.53;;;4.20;;
62933;SDS011;49038;47.600;19.242;2022-11-20T09:07:16;8.82;;;4.20;;
62933;SDS011;49038;47.600;19.242;2022-11-20T09:10:18;5.37;;;4.87;;
62933;SDS011;49038;47.600;19.242;2022-11-20T09:13:26;9.27;;;6.05;;
62933;SDS011;49038;47.600;19.242;2022-11-20T09:16:29;7.10;;;4.65;;
62933;SDS011;49038;47.600;19.242;2022-11-20T09:19:31;9.55;;;5.07;;
62933;SDS011;49038;47.600;19.242;2022-11-20T09:22:39;7.47;;;5.72;;
62933;SDS011;49038;47.600;19.242;2022-11-20T09:25:42;13.02;;;7.28;;
62933;SDS011;49038;47.600;19.242;2022-11-20T09:28:44;7.50;;;4.68;;
62933;SDS011;49038;47.600;19.242;2022-11-20T09:31:47;32.65;;;5.87;;
62933;SDS011;49038;47.600;19.242;2022-11-20T09:34:49;11.98;;;6.15;;
62933;SDS011;49038;47.600;19.242;2022-11-20T09:37:51;11.90;;;5.57;;
62933;SDS011;49038;47.600;19.242;2022-11-20T09:40:58;13.93;;;7.03;;
62933;SDS011;49038;47.600;19.242;2022-11-20T09:53:53;7.00;;;4.70;;
62933;SDS011;49038;47.600;19.242;2022-11-20T09:57:11;7.37;;;4.30;;
62933;SDS011;49038;47.600;19.242;2022-11-20T10:00:22;11.63;;;7.00;;
62933;SDS011;49038;47.600;19.242;2022-11-20T10:03:40;8.40;;;4.65;;
62933;SDS011;49038;47.600;19.242;2022-11-20T10:06:50;9.90;;;5.00;;
62933;SDS011;49038;47.600;19.242;2022-11-20T10:14:07;7.47;;;5.00;;
62933;SDS011;49038;47.600;19.242;2022-11-20T10:21:02;10.23;;;4.70;;
62933;SDS011;49038;47.600;19.242;2022-11-20T10:30:56;5.50;;;3.92;;
62933;SDS011;49038;47.600;19.242;2022-11-20T10:34:14;5.87;;;4.30;;
62933;SDS011;49038;47.600;19.242;2022-11-20T10:37:27;6.20;;;3.90;;
62933;SDS011;49038;47.600;19.242;2022-11-20T10:40:34;5.97;;;4.30;;
62933;SDS011;49038;47.600;19.242;2022-11-20T10:43:39;9.68;;;4.00;;
62933;SDS011;49038;47.600;19.242;2022-11-20T10:46:45;6.72;;;3.95;;
62933;SDS011;49038;47.600;19.242;2022-11-20T10:49:51;5.65;;;4.43;;
62933;SDS011;49038;47.600;19.242;2022-11-20T10:56:28;6.62;;;3.80;;
62933;SDS011;49038;47.600;19.242;2022-11-20T11:02:50;7.40;;;5.07;;
62933;SDS011;49038;47.600;19.242;2022-11-20T11:06:02;11.82;;;5.57;;
62933;SDS011;49038;47.600;19.242;2022-11-20T11:09:11;14.80;;;7.47;;
62933;SDS011;49038;47.600;19.242;2022-11-20T11:12:17;13.40;;;6.97;;
62933;SDS011;49038;47.600;19.242;2022-11-20T11:15:30;13.90;;;5.75;;
62933;SDS011;49038;47.600;19.242;2022-11-20T11:18:39;7.95;;;4.15;;
62933;SDS011;49038;47.600;19.242;2022-11-20T11:22:00;6.47;;;4.03;;
62933;SDS011;49038;47.600;19.242;2022-11-20T11:25:03;7.43;;;4.25;;
62933;SDS011;49038;47.600;19.242;2022-11-20T11:31:29;9.82;;;4.20;;
62933;SDS011;49038;47.600;19.242;2022-11-20T11:34:35;10.25;;;4.55;;
62933;SDS011;49038;47.600;19.242;2022-11-20T11:37:37;9.45;;;5.10;;
62933;SDS011;49038;47.600;19.242;2022-11-20T11:40:40;12.37;;;6.00;;
62933;SDS011;49038;47.600;19.242;2022-11-20T11:43:49;12.35;;;6.22;;
62933;SDS011;49038;47.600;19.242;2022-11-20T11:47:35;8.32;;;4.95;;
62933;SDS011;49038;47.600;19.242;2022-11-20T11:50:34;7.40;;;5.05;;
62933;SDS011;49038;47.600;19.242;2022-11-20T11:53:37;10.35;;;4.85;;
62933;SDS011;49038;47.600;19.242;2022-11-20T11:56:42;5.97;;;3.65;;
62933;SDS011;49038;47.600;19.242;2022-11-20T12:00:01;7.82;;;4.03;;
62933;SDS011;49038;47.600;19.242;2022-11-20T12:03:19;9.80;;;4.35;;
62933;SDS011;49038;47.600;19.242;2022-11-20T12:06:25;11.25;;;5.75;;
62933;SDS011;49038;47.600;19.242;2022-11-20T12:09:34;7.78;;;5.50;;
62933;SDS011;49038;47.600;19.242;2022-11-20T12:12:42;8.82;;;5.65;;
62933;SDS011;49038;47.600;19.242;2022-11-20T12:15:47;7.37;;;4.65;;
62933;SDS011;49038;47.600;19.242;2022-11-20T12:18:50;11.00;;;5.50;;
62933;SDS011;49038;47.600;19.242;2022-11-20T12:31:46;9.53;;;5.13;;
62933;SDS011;49038;47.600;19.242;2022-11-20T12:35:22;10.02;;;4.68;;
62933;SDS011;49038;47.600;19.242;2022-11-20T12:45:40;9.15;;;4.37;;
62933;SDS011;49038;47.600;19.242;2022-11-20T12:48:52;10.00;;;5.28;;
62933;SDS011;49038;47.600;19.242;2022-11-20T12:59:51;12.18;;;5.82;;
62933;SDS011;49038;47.600;19.242;2022-11-20T13:05:55;8.98;;;4.30;;
62933;SDS011;49038;47.600;19.242;2022-11-20T13:09:00;11.50;;;6.68;;
62933;SDS011;49038;47.600;19.242;2022-11-20T13:12:06;17.75;;;6.28;;
62933;SDS011;49038;47.600;19.242;2022-11-20T13:18:50;16.42;;;6.50;;
62933;SDS011;49038;47.600;19.242;2022-11-20T13:21:53;10.80;;;5.40;;
62933;SDS011;49038;47.600;19.242;2022-11-20T13:24:55;12.93;;;5.57;;
62933;SDS011;49038;47.600;19.242;2022-11-20T13:27:58;11.80;;;5.55;;
62933;SDS011;49038;47.600;19.242;2022-11-20T13:31:02;11.23;;;5.37;;
62933;SDS011;49038;47.600;19.242;2022-11-20T13:34:05;14.15;;;6.12;;
62933;SDS011;49038;47.600;19.242;2022-11-20T13:37:23;15.15;;;7.47;;
62933;SDS011;49038;47.600;19.242;2022-11-20T13:40:27;21.83;;;9.57;;
62933;SDS011;49038;47.600;19.242;2022-11-20T13:43:40;61.10;;;20.40;;
62933;SDS011;49038;47.600;19.242;2022-11-20T13:46:44;86.40;;;34.83;;
62933;SDS011;49038;47.600;19.242;2022-11-20T13:49:48;31.20;;;17.10;;
62933;SDS011;49038;47.600;19.242;2022-11-20T13:53:02;19.77;;;9.70;;
62933;SDS011;49038;47.600;19.242;2022-11-20T14:03:20;8.35;;;4.93;;
62933;SDS011;49038;47.600;19.242;2022-11-20T14:06:44;13.13;;;4.50;;
62933;SDS011;49038;47.600;19.242;2022-11-20T14:09:49;10.75;;;4.43;;
62933;SDS011;49038;47.600;19.242;2022-11-20T14:12:53;100.43;;;32.33;;
62933;SDS011;49038;47.600;19.242;2022-11-20T14:15:56;19.42;;;10.25;;
62933;SDS011;49038;47.600;19.242;2022-11-20T14:22:24;26.73;;;10.43;;
62933;SDS011;49038;47.600;19.242;2022-11-20T14:25:27;48.75;;;18.30;;
62933;SDS011;49038;47.600;19.242;2022-11-20T14:28:32;13.52;;;6.20;;
62933;SDS011;49038;47.600;19.242;2022-11-20T14:31:34;9.77;;;6.15;;
62933;SDS011;49038;47.600;19.242;2022-11-20T14:34:38;7.78;;;4.80;;
62933;SDS011;49038;47.600;19.242;2022-11-20T14:37:42;7.80;;;4.57;;
62933;SDS011;49038;47.600;19.242;2022-11-20T14:40:45;13.27;;;4.60;;
62933;SDS011;49038;47.600;19.242;2022-11-20T14:43:57;13.40;;;7.90;;
62933;SDS011;49038;47.600;19.242;2022-11-20T14:47:02;15.32;;;6.65;;
62933;SDS011;49038;47.600;19.242;2022-11-20T14:50:07;12.35;;;6.62;;
62933;SDS011;49038;47.600;19.242;2022-11-20T14:53:21;19.08;;;9.35;;
62933;SDS011;49038;47.600;19.242;2022-11-20T14:56:24;56.90;;;18.50;;
62933;SDS011;49038;47.600;19.242;2022-11-20T14:59:36;22.20;;;10.68;;
62933;SDS011;49038;47.600;19.242;2022-11-20T15:02:40;20.58;;;7.90;;
62933;SDS011;49038;47.600;19.242;2022-11-20T15:05:44;15.43;;;6.85;;
62933;SDS011;49038;47.600;19.242;2022-11-20T15:08:51;14.73;;;6.93;;
62933;SDS011;49038;47.600;19.242;2022-11-20T15:11:58;18.45;;;7.97;;
62933;SDS011;49038;47.600;19.242;2022-11-20T15:15:02;26.83;;;15.55;;
62933;SDS011;49038;47.600;19.242;2022-11-20T15:18:05;12.27;;;8.02;;
62933;SDS011;49038;47.600;19.242;2022-11-20T15:21:16;38.00;;;10.95;;
62933;SDS011;49038;47.600;19.242;2022-11-20T15:24:20;278.50;;;67.15;;
62933;SDS011;49038;47.600;19.242;2022-11-20T15:27:23;66.97;;;30.52;;
62933;SDS011;49038;47.600;19.242;2022-11-20T15:30:25;25.48;;;13.52;;
62933;SDS011;49038;47.600;19.242;2022-11-20T15:33:28;27.40;;;14.23;;
62933;SDS011;49038;47.600;19.242;2022-11-20T15:36:30;25.88;;;13.02;;
62933;SDS011;49038;47.600;19.242;2022-11-20T15:39:33;37.22;;;15.18;;
62933;SDS011;49038;47.600;19.242;2022-11-20T15:42:35;35.40;;;15.93;;
62933;SDS011;49038;47.600;19.242;2022-11-20T15:45:39;31.37;;;14.57;;
62933;SDS011;49038;47.600;19.242;2022-11-20T15:48:46;29.40;;;12.80;;
62933;SDS011;49038;47.600;19.242;2022-11-20T15:51:54;24.42;;;10.90;;
62933;SDS011;49038;47.600;19.242;2022-11-20T15:54:56;18.75;;;10.60;;
62933;SDS011;49038;47.600;19.242;2022-11-20T15:57:58;31.12;;;15.18;;
62933;SDS011;49038;47.600;19.242;2022-11-20T16:01:01;26.45;;;14.65;;
62933;SDS011;49038;47.600;19.242;2022-11-20T16:04:04;30.62;;;15.05;;
62933;SDS011;49038;47.600;19.242;2022-11-20T16:07:10;31.40;;;15.95;;
62933;SDS011;49038;47.600;19.242;2022-11-20T16:10:13;33.10;;;16.35;;
62933;SDS011;49038;47.600;19.242;2022-11-20T16:13:16;43.55;;;18.27;;
62933;SDS011;49038;47.600;19.242;2022-11-20T16:16:38;31.23;;;16.02;;
62933;SDS011;49038;47.600;19.242;2022-11-20T16:19:42;27.52;;;15.20;;
62933;SDS011;49038;47.600;19.242;2022-11-20T16:22:44;28.00;;;14.52;;
62933;SDS011;49038;47.600;19.242;2022-11-20T16:25:47;44.50;;;18.67;;
62933;SDS011;49038;47.600;19.242;2022-11-20T16:28:50;28.80;;;17.05;;
62933;SDS011;49038;47.600;19.242;2022-11-20T16:31:52;45.90;;;21.30;;
62933;SDS011;49038;47.600;19.242;2022-11-20T16:34:54;32.65;;;17.33;;
62933;SDS011;49038;47.600;19.242;2022-11-20T16:37:57;53.60;;;26.85;;
62933;SDS011;49038;47.600;19.242;2022-11-20T16:41:00;79.53;;;35.42;;
62933;SDS011;49038;47.600;19.242;2022-11-20T16:44:06;68.95;;;31.02;;
62933;SDS011;49038;47.600;19.242;2022-11-20T16:47:10;78.18;;;38.55;;
62933;SDS011;49038;47.600;19.242;2022-11-20T16:50:12;81.10;;;38.53;;
62933;SDS011;49038;47.600;19.242;2022-11-20T16:53:16;77.57;;;35.03;;
62933;SDS011;49038;47.600;19.242;2022-11-20T16:56:20;56.10;;;28.38;;
62933;SDS011;49038;47.600;19.242;2022-11-20T16:59:24;95.00;;;39.13;;
62933;SDS011;49038;47.600;19.242;2022-11-20T17:02:26;190.40;;;72.78;;
62933;SDS011;49038;47.600;19.242;2022-11-20T17:05:29;97.12;;;44.92;;
62933;SDS011;49038;47.600;19.242;2022-11-20T17:08:32;56.67;;;28.95;;
62933;SDS011;49038;47.600;19.242;2022-11-20T17:11:35;43.30;;;20.95;;
62933;SDS011;49038;47.600;19.242;2022-11-20T17:14:38;44.53;;;21.60;;
62933;SDS011;49038;47.600;19.242;2022-11-20T17:17:40;46.90;;;23.52;;
62933;SDS011;49038;47.600;19.242;2022-11-20T17:20:48;39.42;;;20.60;;
62933;SDS011;49038;47.600;19.242;2022-11-20T17:23:53;44.08;;;19.37;;
62933;SDS011;49038;47.600;19.242;2022-11-20T17:26:55;58.92;;;23.30;;
62933;SDS011;49038;47.600;19.242;2022-11-20T17:29:58;33.65;;;16.70;;
62933;SDS011;49038;47.600;19.242;2022-11-20T17:33:00;28.33;;;15.88;;
62933;SDS011;49038;47.600;19.242;2022-11-20T17:36:04;32.35;;;17.52;;
62933;SDS011;49038;47.600;19.242;2022-11-20T17:39:08;20.00;;;11.38;;
62933;SDS011;49038;47.600;19.242;2022-11-20T17:42:10;21.75;;;13.43;;
62933;SDS011;49038;47.600;19.242;2022-11-20T17:45:42;50.78;;;24.40;;
62933;SDS011;49038;47.600;19.242;2022-11-20T17:48:46;72.75;;;31.15;;
62933;SDS011;49038;47.600;19.242;2022-11-20T17:51:49;33.95;;;20.48;;
62933;SDS011;49038;47.600;19.242;2022-11-20T17:54:52;26.90;;;16.80;;
62933;SDS011;49038;47.600;19.242;2022-11-20T17:57:57;58.05;;;24.63;;
62933;SDS011;49038;47.600;19.242;2022-11-20T18:01:06;57.78;;;25.05;;
62933;SDS011;49038;47.600;19.242;2022-11-20T18:04:10;68.00;;;33.45;;
62933;SDS011;49038;47.600;19.242;2022-11-20T18:07:13;48.90;;;24.80;;
62933;SDS011;49038;47.600;19.242;2022-11-20T18:10:16;54.50;;;28.73;;
62933;SDS011;49038;47.600;19.242;2022-11-20T18:13:18;56.83;;;30.48;;
62933;SDS011;49038;47.600;19.242;2022-11-20T18:16:21;128.75;;;55.85;;
62933;SDS011;49038;47.600;19.242;2022-11-20T18:19:25;84.18;;;40.75;;
62933;SDS011;49038;47.600;19.242;2022-11-20T18:22:33;141.95;;;60.88;;
62933;SDS011;49038;47.600;19.242;2022-11-20T18:25:35;103.22;;;44.55;;
62933;SDS011;49038;47.600;19.242;2022-11-20T18:28:38;77.68;;;34.80;;
62933;SDS011;49038;47.600;19.242;2022-11-20T18:31:40;50.88;;;27.17;;
62933;SDS011;49038;47.600;19.242;2022-11-20T18:34:43;49.70;;;25.83;;
62933;SDS011;49038;47.600;19.242;2022-11-20T18:37:46;66.55;;;29.30;;
62933;SDS011;49038;47.600;19.242;2022-11-20T18:40:48;64.62;;;30.27;;
62933;SDS011;49038;47.600;19.242;2022-11-20T18:43:51;76.65;;;32.33;;
62933;SDS011;49038;47.600;19.242;2022-11-20T18:47:12;58.80;;;30.70;;
62933;SDS011;49038;47.600;19.242;2022-11-20T18:50:18;35.67;;;23.23;;
62933;SDS011;49038;47.600;19.242;2022-11-20T18:53:20;34.45;;;20.00;;
62933;SDS011;49038;47.600;19.242;2022-11-20T18:56:23;74.25;;;32.30;;
62933;SDS011;49038;47.600;19.242;2022-11-20T18:59:25;86.78;;;35.83;;
62933;SDS011;49038;47.600;19.242;2022-11-20T19:02:28;73.12;;;36.80;;
62933;SDS011;49038;47.600;19.242;2022-11-20T19:05:31;87.05;;;40.15;;
62933;SDS011;49038;47.600;19.242;2022-11-20T19:08:37;54.60;;;30.42;;
62933;SDS011;49038;47.600;19.242;2022-11-20T19:11:40;51.85;;;28.90;;
62933;SDS011;49038;47.600;19.242;2022-11-20T19:14:43;47.42;;;27.30;;
62933;SDS011;49038;47.600;19.242;2022-11-20T19:17:45;46.30;;;25.60;;
62933;SDS011;49038;47.600;19.242;2022-11-20T19:20:48;45.12;;;21.17;;